Select another period ( hide this area )

Units Period Custom range Directly to
Metric English Both
Daily Weekly Monthly Yearly
use both date-selectors for a custom range
previous Day
With this date

WeatherUnderground graphs for this period ( click here ) Loading the graph can take up to a minute!


Daily Summary for Saturday Jun 22 2024
Time Temp. ( °C ) Dew pt. ( °C ) Wind ( km/h ) From Gust ( km/h ) Pressure ( hPa ) Humid.( % ) Rainrate ( cm ) Solar ( W/m2 )
High19,8 15,2 21,0 SSW ( 1247/1894 ) 30,0 1015,0 87 - 676.7
Average16,2 12,7 10,5 SSW #117/180 15,3 1014,4 80 - 332 #113/180
Low11,9 9,5 4,0   7,0 1013,1 70 -  
Daily Tabular details for Saturday Jun 22 2024
Time Temp. ( °C ) Dew pt. ( °C ) Wind ( km/h ) From Gust ( km/h ) Pressure ( hPa ) Humid.( % ) Rainrate ( cm ) Solar ( W/m2 )
00:04 16,2 13,3 8,0 SSW 11,0 1013,1 83 - -
00:09 15,9 13,2 7,0 SSW 9,0 1013,1 84 - -
00:14 15,8 13,1 7,0 SSW 9,0 1013,1 84 - -
00:19 15,7 13,0 7,0 SW 12,0 1013,3 84 - -
00:24 15,7 12,9 8,0 SSW 11,0 1013,7 84 - -
00:29 15,7 12,9 8,0 SW 12,0 1013,8 84 - -
00:34 15,7 13,0 7,0 SSW 11,0 1013,8 84 - -
00:39 15,7 13,0 4,0 WSW 9,0 1013,7 84 - -
00:44 15,7 12,9 6,0 West 9,0 1013,8 84 - -
00:49 15,7 12,9 8,0 SW 14,0 1013,9 84 - -
00:54 15,5 12,8 7,0 WNW 14,0 1013,9 84 - -
00:59 15,4 12,8 16,0 WNW 20,0 1013,8 84 - -
01:04 15,4 12,6 5,0 West 9,0 1013,6 83 - -
01:09 15,4 12,6 6,0 SSW 9,0 1013,6 83 - -
01:14 15,5 12,6 8,0 SW 12,0 1013,7 83 - -
01:19 15,5 12,6 6,0 WSW 10,0 1013,8 83 - -
01:24 15,5 12,6 7,0 WSW 19,0 1013,7 83 - -
01:29 15,5 12,6 9,0 SW 15,0 1013,7 83 - -
01:34 15,5 12,6 7,0 West 10,0 1013,7 83 - -
01:39 15,4 12,6 9,0 SSW 15,0 1013,8 83 - -
01:44 15,4 12,7 10,0 WSW 22,0 1013,9 84 - -
01:49 15,3 12,7 8,0 SW 14,0 1014,0 85 - -
01:54 15,1 12,7 7,0 SW 10,0 1013,9 86 - -
01:59 14,8 12,6 11,0 SW 15,0 1013,9 87 - -
02:04 14,7 12,6 10,0 WSW 12,0 1013,9 87 - -
02:09 14,6 12,4 11,0 SW 15,0 1013,9 87 - -
02:14 14,6 12,4 11,0 SW 15,0 1013,9 87 - -
02:19 14,6 12,2 8,0 SSW 15,0 1014,0 86 - -
02:24 14,4 12,1 12,0 SW 20,0 1014,1 86 - -
02:29 14,4 12,1 9,0 SW 14,0 1014,1 86 - -
02:34 14,4 11,9 7,0 SW 14,0 1014,1 85 - -
02:39 14,3 11,8 8,0 West 12,0 1014,2 85 - -
02:44 14,3 11,8 8,0 SSW 11,0 1014,2 85 - -
02:49 14,3 11,8 8,0 SW 10,0 1014,2 85 - -
02:54 14,3 11,8 11,0 SSW 15,0 1014,3 85 - -
02:59 14,2 11,7 9,0 SW 17,0 1014,3 85 - -
03:04 14,2 11,7 6,0 SW 11,0 1014,3 85 - -
03:09 14,2 11,7 13,0 SW 19,0 1014,3 85 - -
03:14 14,2 11,7 12,0 SW 19,0 1014,3 85 - -
03:19 14,2 11,7 13,0 SW 20,0 1014,3 85 - -
03:24 14,1 11,6 8,0 SSW 13,0 1014,3 85 - -
03:29 14,1 11,6 8,0 SW 12,0 1014,3 85 - -
03:34 14,1 11,6 8,0 West 11,0 1014,3 85 - -
03:39 14,0 11,5 8,0 South 14,0 1014,2 85 - -
03:44 13,9 11,4 8,0 SSW 15,0 1014,3 85 - -
03:49 13,9 11,4 11,0 SSW 15,0 1014,3 85 - -
03:54 13,8 11,3 12,0 SW 17,0 1014,3 85 - -
03:59 13,7 11,2 11,0 SSW 17,0 1014,3 85 - -
04:04 13,6 10,9 9,0 SW 14,0 1014,3 84 - -
04:09 13,3 10,7 7,0 SSW 12,0 1014,2 84 - -
04:14 13,2 10,5 8,0 WSW 12,0 1014,2 84 - -
04:19 13,1 10,6 8,0 SSW 15,0 1014,2 85 - -
04:24 13,0 10,6 12,0 SSW 15,0 1014,2 85 - -
04:29 13,0 10,6 11,0 SW 19,0 1014,3 85 - -
04:34 12,9 10,4 12,0 SW 19,0 1014,2 85 - -
04:39 12,8 10,6 9,0 SSW 15,0 1014,3 86 - -
04:44 12,8 10,6 13,0 SSW 19,0 1014,4 86 - -
04:49 12,8 10,3 9,0 SW 14,0 1014,4 85 - -
04:54 12,8 10,3 8,0 SSW 14,0 1014,4 85 - -
04:59 12,7 10,2 8,0 SW 13,0 1014,4 85 - -
05:04 12,6 10,2 8,0 SSW 14,0 1014,4 85 - -
05:09 12,6 10,1 9,0 SSW 10,0 1014,5 85 - -
05:14 12,6 10,0 9,0 SSW 14,0 1014,5 84 - -
05:19 12,7 10,1 7,0 SSW 9,0 1014,6 84 - -
05:24 12,7 10,1 7,0 SSW 12,0 1014,6 84 - -
05:29 12,6 9,9 6,0 SSW 9,0 1014,7 84 - -
05:34 12,4 9,9 9,0 SSW 15,0 1014,7 85 - -
05:39 12,4 9,9 6,0 SSW 7,0 1014,7 85 - 5
05:44 12,4 9,9 7,0 SSW 12,0 1014,7 85 - 7.1
05:49 12,2 9,7 7,0 SSW 9,0 1014,8 85 - 9.1
05:54 12,0 9,6 8,0 SSW 10,0 1014,8 85 - 12.1
05:59 11,9 9,6 9,0 South 12,0 1014,8 86 - 23.2
06:04 11,9 9,5 8,0 SSW 10,0 1014,9 85 - 30.3
06:09 12,1 9,7 8,0 SSW 12,0 1014,9 85 - 35.4
06:14 12,2 9,8 8,0 SSW 14,0 1014,9 85 - 40.4
06:19 12,3 9,9 8,0 SSW 13,0 1014,9 85 - 40.4
06:24 12,3 9,9 9,0 SSW 12,0 1014,9 85 - 35.4
06:29 12,3 9,9 8,0 SSW 8,0 1014,8 85 - 67.7
06:34 12,6 10,2 8,0 SSW 9,0 1014,9 85 - 77.8
06:39 12,9 10,3 9,0 SSW 12,0 1014,9 85 - 83.8
06:44 13,1 10,4 8,0 SSW 10,0 1014,9 84 - 106
06:49 13,3 10,6 10,0 SSW 14,0 1014,9 84 - 122.2
06:54 13,5 10,7 10,0 SSW 13,0 1014,9 83 - 131.3
06:59 13,7 10,9 8,0 SSW 9,0 1014,9 83 - 147.5
07:04 13,9 11,1 10,0 SSW 14,0 1014,9 83 - 161.6
07:09 14,2 11,4 8,0 SSW 9,0 1014,9 83 - 172.7
07:14 14,4 11,6 8,0 SSW 12,0 1014,9 83 - 186.8
07:19 14,6 11,5 7,0 SSW 12,0 1014,9 82 - 201
07:24 14,7 11,7 8,0 SSW 11,0 1014,9 82 - 215.1
07:29 14,9 11,9 8,0 SSW 10,0 1014,9 82 - 222.2
07:34 15,1 11,9 9,0 SSW 10,0 1014,9 82 - 232.3
07:39 15,1 11,9 9,0 SSW 14,0 1014,9 81 - 245.4
07:44 15,2 12,2 12,0 SSW 19,0 1014,9 82 - 260.6
07:49 15,4 12,2 11,0 SSW 17,0 1014,9 81 - 307
07:54 15,7 12,4 9,0 SSW 15,0 1014,9 81 - 323.2
07:59 15,7 12,3 12,0 SSW 17,0 1014,9 81 - 353.5
08:04 15,9 12,7 10,0 SSW 14,0 1015,0 81 - 356.5
08:09 15,9 12,6 12,0 SSW 15,0 1014,9 81 - 314.1
08:14 15,7 12,4 14,0 SSW 19,0 1014,8 81 - 332.3
08:19 16,1 12,6 9,0 SSW 12,0 1014,8 81 - 339.4
08:24 16,7 13,2 7,0 SW 10,0 1014,8 82 - 351.5
08:29 17,1 13,6 10,0 SSW 12,0 1014,9 80 - 360.6
08:34 17,1 13,2 10,0 SSW 14,0 1014,9 78 - 369.7
08:39 17,3 13,4 12,0 SSW 15,0 1015,0 78 - 379.8
08:44 17,6 13,5 9,0 SSW 15,0 1014,9 77 - 395.9
08:49 17,6 13,5 15,0 SW 20,0 1014,8 77 - 407
08:54 17,5 13,2 13,0 SSW 19,0 1014,9 76 - 417.1
08:59 17,8 13,7 14,0 SSW 20,0 1014,8 77 - 428.2
09:04 17,9 13,6 16,0 SW 20,0 1014,8 76 - 442.4
09:09 18,0 13,5 10,0 SSW 15,0 1014,8 75 - 452.5
09:14 18,3 14,0 7,0 SSW 10,0 1014,7 76 - 459.6
09:19 18,5 14,2 13,0 SSW 14,0 1014,7 76 - 470.7
09:24 18,7 14,6 10,0 SSW 15,0 1014,7 77 - 479.8
09:29 18,5 13,5 13,0 SSW 15,0 1014,7 73 - 491.9
09:34 18,9 14,0 8,0 SSW 12,0 1014,6 74 - 506
09:39 18,9 14,0 18,0 SSW 22,0 1014,5 73 - 513.1
09:44 18,8 13,7 14,0 SSW 19,0 1014,5 73 - 522.2
09:49 18,9 13,9 12,0 SSW 19,0 1014,5 73 - 527.2
09:54 18,9 13,7 11,0 SW 15,0 1014,6 72 - 564.6
09:59 19,3 14,1 8,0 SSW 14,0 1014,7 72 - 568.6
10:04 19,7 14,9 12,0 SSW 15,0 1014,7 74 - 576.7
10:09 19,7 14,3 12,0 SSW 24,0 1014,6 71 - 614.1
10:14 19,6 14,3 16,0 SSW 24,0 1014,6 72 - 605
10:19 19,4 14,3 21,0 SSW 24,0 1014,6 72 - 602
10:24 19,4 14,1 16,0 SSW 22,0 1014,7 71 - 662.6
10:29 19,6 14,1 20,0 SSW 26,0 1014,7 71 - 676.7
10:34 19,8 14,3 14,0 SSW 19,0 1014,6 71 - 676.7
10:39 19,8 14,2 21,0 SSW 30,0 1014,5 70 - 531.3
10:44 19,2 13,8 14,0 SSW 17,0 1014,5 72 - 386.8
10:49 19,2 13,8 14,0 SSW 19,0 1014,5 71 - 408
10:54 19,2 13,7 16,0 SSW 24,0 1014,5 71 - 454.5
10:59 19,3 13,6 15,0 SSW 22,0 1014,4 70 - 454.5
11:04 19,1 13,7 15,0 SW 24,0 1014,4 71 - 419.1
11:09 19,1 14,0 13,0 SSW 20,0 1014,4 73 - 585.8
11:14 19,6 14,6 12,0 SW 19,0 1014,4 74 - 585.8
11:19 19,6 14,1 11,0 SSW 17,0 1014,4 72 - 344.4
11:24 19,2 14,1 16,0 SSW 22,0 1014,4 72 - 445.4
11:29 19,1 13,8 16,0 SW 22,0 1014,3 72 - 429.3
11:34 19,1 14,1 13,0 SW 24,0 1014,3 73 - 386.8
11:39 19,0 13,8 13,0 SW 19,0 1014,4 72 - 353.5
11:44 18,8 14,1 13,0 SW 19,0 1014,4 74 - 325.2
11:49 18,7 13,8 12,0 SW 15,0 1014,5 73 - 271.7
11:54 18,7 13,7 13,0 SW 15,0 1014,5 73 - 238.4
11:59 18,6 13,9 11,0 SSW 15,0 1014,4 74 - 253.5
12:04 18,9 14,2 7,0 SSW 12,0 1014,4 75 - 304
12:09 19,2 14,6 11,0 SSW 15,0 1014,4 75 - 408
12:14 19,1 14,2 14,0 SSW 19,0 1014,4 73 - 260.6
12:19 18,8 13,9 13,0 SSW 17,0 1014,4 74 - 135.3
12:24 18,4 13,7 11,0 SSW 14,0 1014,4 76 - 62.6
12:29 17,8 13,7 11,0 SSW 17,0 1014,4 78 - 115.1
12:34 17,6 13,9 10,0 SSW 14,0 1014,4 79 - 154.5
12:39 17,7 14,1 9,0 SSW 13,0 1014,3 79 - 234.3
12:44 18,2 14,4 6,0 SSW 7,0 1014,3 79 - 326.2
12:49 18,5 14,6 12,0 SSW 19,0 1014,2 79 - 454.5
12:54 18,9 14,9 10,0 SW 15,0 1014,2 78 - 400
12:59 19,0 14,6 9,0 SSW 14,0 1014,2 76 - 410.1
13:04 19,2 14,8 16,0 South 19,0 1014,2 76 - 410.1
13:09 19,2 14,6 15,0 SSW 20,0 1014,3 76 - 456.5
13:14 19,1 14,9 16,0 SW 25,0 1014,3 77 - 431.3
13:19 19,1 14,8 16,0 SSW 29,0 1014,2 76 - 348.4
13:24 18,9 14,3 17,0 SSW 30,0 1014,2 75 - 287.9
13:29 18,8 14,3 19,0 SW 26,0 1014,1 76 - 289.9
13:34 18,8 14,4 11,0 SSW 15,0 1014,1 76 - 314.1
13:39 18,9 14,3 15,0 SSW 19,0 1014,1 75 - 280.8
13:44 18,9 14,6 14,0 SSW 15,0 1014,1 76 - 433.3
13:49 19,3 15,2 9,0 SSW 12,0 1014,1 77 - 433.3
13:54 19,3 15,0 11,0 SSW 12,0 1014,2 76 - 360.6
13:59 19,1 14,6 12,0 SSW 15,0 1014,2 75 - 296.9
14:04 19,1 14,9 9,0 SSW 11,0 1014,2 77 - 296.9
14:09 19,2 14,6 15,0 SSW 20,0 1014,1 75 - 367.6
14:14 19,1 14,6 14,0 South 19,0 1014,1 75 - 367.6
14:19 19,2 15,1 11,0 SSW 15,0 1014,1 77 - 332.3
14:24 19,3 15,2 17,0 SSW 20,0 1014,1 77 - 326.2
14:29 19,2 14,8 8,0 SSW 14,0 1014,2 76 - 300
14:34 19,3 14,9 9,0 SW 14,0 1014,2 76 - 311.1
14:39 19,3 14,9 11,0 SW 17,0 1014,2 76 - 326.2
14:44 19,2 14,9 12,0 SW 19,0 1014,2 76 - 332.3
14:49 19,2 14,8 11,0 SW 15,0 1014,2 76 - 502
14:54 19,4 14,9 8,0 SW 13,0 1014,3 76 - 502
14:59 19,4 14,7 16,0 SSW 24,0 1014,2 75 - 349.5
Daily Summary for Saturday Jun 22 2024
Time Temp. ( °C ) Dew pt. ( °C ) Wind ( km/h ) From Gust ( km/h ) Pressure ( hPa ) Humid.( % ) Rainrate ( cm ) Solar ( W/m2 )
High19,8 15,2 21,0 SSW ( 1247/1894 ) 30,0 1015,0 87 - 676.7
Average16,2 12,7 10,5 SSW #117/180 15,3 1014,4 80 - 332 #113/180
Low11,9 9,5 4,0   7,0 1013,1 70 -  
Daily Tabular details for Saturday Jun 22 2024
Time Temp. ( °C ) Dew pt. ( °C ) Wind ( km/h ) From Gust ( km/h ) Pressure ( hPa ) Humid.( % ) Rainrate ( cm ) Solar ( W/m2 )
00:04 16,2 13,3 8,0 SSW 11,0 1013,1 83 - -
00:09 15,9 13,2 7,0 SSW 9,0 1013,1 84 - -
00:14 15,8 13,1 7,0 SSW 9,0 1013,1 84 - -
00:19 15,7 13,0 7,0 SW 12,0 1013,3 84 - -
00:24 15,7 12,9 8,0 SSW 11,0 1013,7 84 - -
00:29 15,7 12,9 8,0 SW 12,0 1013,8 84 - -
00:34 15,7 13,0 7,0 SSW 11,0 1013,8 84 - -
00:39 15,7 13,0 4,0 WSW 9,0 1013,7 84 - -
00:44 15,7 12,9 6,0 West 9,0 1013,8 84 - -
00:49 15,7 12,9 8,0 SW 14,0 1013,9 84 - -
00:54 15,5 12,8 7,0 WNW 14,0 1013,9 84 - -
00:59 15,4 12,8 16,0 WNW 20,0 1013,8 84 - -
01:04 15,4 12,6 5,0 West 9,0 1013,6 83 - -
01:09 15,4 12,6 6,0 SSW 9,0 1013,6 83 - -
01:14 15,5 12,6 8,0 SW 12,0 1013,7 83 - -
01:19 15,5 12,6 6,0 WSW 10,0 1013,8 83 - -
01:24 15,5 12,6 7,0 WSW 19,0 1013,7 83 - -
01:29 15,5 12,6 9,0 SW 15,0 1013,7 83 - -
01:34 15,5 12,6 7,0 West 10,0 1013,7 83 - -
01:39 15,4 12,6 9,0 SSW 15,0 1013,8 83 - -
01:44 15,4 12,7 10,0 WSW 22,0 1013,9 84 - -
01:49 15,3 12,7 8,0 SW 14,0 1014,0 85 - -
01:54 15,1 12,7 7,0 SW 10,0 1013,9 86 - -
01:59 14,8 12,6 11,0 SW 15,0 1013,9 87 - -
02:04 14,7 12,6 10,0 WSW 12,0 1013,9 87 - -
02:09 14,6 12,4 11,0 SW 15,0 1013,9 87 - -
02:14 14,6 12,4 11,0 SW 15,0 1013,9 87 - -
02:19 14,6 12,2 8,0 SSW 15,0 1014,0 86 - -
02:24 14,4 12,1 12,0 SW 20,0 1014,1 86 - -
02:29 14,4 12,1 9,0 SW 14,0 1014,1 86 - -
02:34 14,4 11,9 7,0 SW 14,0 1014,1 85 - -
02:39 14,3 11,8 8,0 West 12,0 1014,2 85 - -
02:44 14,3 11,8 8,0 SSW 11,0 1014,2 85 - -
02:49 14,3 11,8 8,0 SW 10,0 1014,2 85 - -
02:54 14,3 11,8 11,0 SSW 15,0 1014,3 85 - -
02:59 14,2 11,7 9,0 SW 17,0 1014,3 85 - -
03:04 14,2 11,7 6,0 SW 11,0 1014,3 85 - -
03:09 14,2 11,7 13,0 SW 19,0 1014,3 85 - -
03:14 14,2 11,7 12,0 SW 19,0 1014,3 85 - -
03:19 14,2 11,7 13,0 SW 20,0 1014,3 85 - -
03:24 14,1 11,6 8,0 SSW 13,0 1014,3 85 - -
03:29 14,1 11,6 8,0 SW 12,0 1014,3 85 - -
03:34 14,1 11,6 8,0 West 11,0 1014,3 85 - -
03:39 14,0 11,5 8,0 South 14,0 1014,2 85 - -
03:44 13,9 11,4 8,0 SSW 15,0 1014,3 85 - -
03:49 13,9 11,4 11,0 SSW 15,0 1014,3 85 - -
03:54 13,8 11,3 12,0 SW 17,0 1014,3 85 - -
03:59 13,7 11,2 11,0 SSW 17,0 1014,3 85 - -
04:04 13,6 10,9 9,0 SW 14,0 1014,3 84 - -
04:09 13,3 10,7 7,0 SSW 12,0 1014,2 84 - -
04:14 13,2 10,5 8,0 WSW 12,0 1014,2 84 - -
04:19 13,1 10,6 8,0 SSW 15,0 1014,2 85 - -
04:24 13,0 10,6 12,0 SSW 15,0 1014,2 85 - -
04:29 13,0 10,6 11,0 SW 19,0 1014,3 85 - -
04:34 12,9 10,4 12,0 SW 19,0 1014,2 85 - -
04:39 12,8 10,6 9,0 SSW 15,0 1014,3 86 - -
04:44 12,8 10,6 13,0 SSW 19,0 1014,4 86 - -
04:49 12,8 10,3 9,0 SW 14,0 1014,4 85 - -
04:54 12,8 10,3 8,0 SSW 14,0 1014,4 85 - -
04:59 12,7 10,2 8,0 SW 13,0 1014,4 85 - -
05:04 12,6 10,2 8,0 SSW 14,0 1014,4 85 - -
05:09 12,6 10,1 9,0 SSW 10,0 1014,5 85 - -
05:14 12,6 10,0 9,0 SSW 14,0 1014,5 84 - -
05:19 12,7 10,1 7,0 SSW 9,0 1014,6 84 - -
05:24 12,7 10,1 7,0 SSW 12,0 1014,6 84 - -
05:29 12,6 9,9 6,0 SSW 9,0 1014,7 84 - -
05:34 12,4 9,9 9,0 SSW 15,0 1014,7 85 - -
05:39 12,4 9,9 6,0 SSW 7,0 1014,7 85 - 5
05:44 12,4 9,9 7,0 SSW 12,0 1014,7 85 - 7.1
05:49 12,2 9,7 7,0 SSW 9,0 1014,8 85 - 9.1
05:54 12,0 9,6 8,0 SSW 10,0 1014,8 85 - 12.1
05:59 11,9 9,6 9,0 South 12,0 1014,8 86 - 23.2
06:04 11,9 9,5 8,0 SSW 10,0 1014,9 85 - 30.3
06:09 12,1 9,7 8,0 SSW 12,0 1014,9 85 - 35.4
06:14 12,2 9,8 8,0 SSW 14,0 1014,9 85 - 40.4
06:19 12,3 9,9 8,0 SSW 13,0 1014,9 85 - 40.4
06:24 12,3 9,9 9,0 SSW 12,0 1014,9 85 - 35.4
06:29 12,3 9,9 8,0 SSW 8,0 1014,8 85 - 67.7
06:34 12,6 10,2 8,0 SSW 9,0 1014,9 85 - 77.8
06:39 12,9 10,3 9,0 SSW 12,0 1014,9 85 - 83.8
06:44 13,1 10,4 8,0 SSW 10,0 1014,9 84 - 106
06:49 13,3 10,6 10,0 SSW 14,0 1014,9 84 - 122.2
06:54 13,5 10,7 10,0 SSW 13,0 1014,9 83 - 131.3
06:59 13,7 10,9 8,0 SSW 9,0 1014,9 83 - 147.5
07:04 13,9 11,1 10,0 SSW 14,0 1014,9 83 - 161.6
07:09 14,2 11,4 8,0 SSW 9,0 1014,9 83 - 172.7
07:14 14,4 11,6 8,0 SSW 12,0 1014,9 83 - 186.8
07:19 14,6 11,5 7,0 SSW 12,0 1014,9 82 - 201
07:24 14,7 11,7 8,0 SSW 11,0 1014,9 82 - 215.1
07:29 14,9 11,9 8,0 SSW 10,0 1014,9 82 - 222.2
07:34 15,1 11,9 9,0 SSW 10,0 1014,9 82 - 232.3
07:39 15,1 11,9 9,0 SSW 14,0 1014,9 81 - 245.4
07:44 15,2 12,2 12,0 SSW 19,0 1014,9 82 - 260.6
07:49 15,4 12,2 11,0 SSW 17,0 1014,9 81 - 307
07:54 15,7 12,4 9,0 SSW 15,0 1014,9 81 - 323.2
07:59 15,7 12,3 12,0 SSW 17,0 1014,9 81 - 353.5
08:04 15,9 12,7 10,0 SSW 14,0 1015,0 81 - 356.5
08:09 15,9 12,6 12,0 SSW 15,0 1014,9 81 - 314.1
08:14 15,7 12,4 14,0 SSW 19,0 1014,8 81 - 332.3
08:19 16,1 12,6 9,0 SSW 12,0 1014,8 81 - 339.4
08:24 16,7 13,2 7,0 SW 10,0 1014,8 82 - 351.5
08:29 17,1 13,6 10,0 SSW 12,0 1014,9 80 - 360.6
08:34 17,1 13,2 10,0 SSW 14,0 1014,9 78 - 369.7
08:39 17,3 13,4 12,0 SSW 15,0 1015,0 78 - 379.8
08:44 17,6 13,5 9,0 SSW 15,0 1014,9 77 - 395.9
08:49 17,6 13,5 15,0 SW 20,0 1014,8 77 - 407
08:54 17,5 13,2 13,0 SSW 19,0 1014,9 76 - 417.1
08:59 17,8 13,7 14,0 SSW 20,0 1014,8 77 - 428.2
09:04 17,9 13,6 16,0 SW 20,0 1014,8 76 - 442.4
09:09 18,0 13,5 10,0 SSW 15,0 1014,8 75 - 452.5
09:14 18,3 14,0 7,0 SSW 10,0 1014,7 76 - 459.6
09:19 18,5 14,2 13,0 SSW 14,0 1014,7 76 - 470.7
09:24 18,7 14,6 10,0 SSW 15,0 1014,7 77 - 479.8
09:29 18,5 13,5 13,0 SSW 15,0 1014,7 73 - 491.9
09:34 18,9 14,0 8,0 SSW 12,0 1014,6 74 - 506
09:39 18,9 14,0 18,0 SSW 22,0 1014,5 73 - 513.1
09:44 18,8 13,7 14,0 SSW 19,0 1014,5 73 - 522.2
09:49 18,9 13,9 12,0 SSW 19,0 1014,5 73 - 527.2
09:54 18,9 13,7 11,0 SW 15,0 1014,6 72 - 564.6
09:59 19,3 14,1 8,0 SSW 14,0 1014,7 72 - 568.6
10:04 19,7 14,9 12,0 SSW 15,0 1014,7 74 - 576.7
10:09 19,7 14,3 12,0 SSW 24,0 1014,6 71 - 614.1
10:14 19,6 14,3 16,0 SSW 24,0 1014,6 72 - 605
10:19 19,4 14,3 21,0 SSW 24,0 1014,6 72 - 602
10:24 19,4 14,1 16,0 SSW 22,0 1014,7 71 - 662.6
10:29 19,6 14,1 20,0 SSW 26,0 1014,7 71 - 676.7
10:34 19,8 14,3 14,0 SSW 19,0 1014,6 71 - 676.7
10:39 19,8 14,2 21,0 SSW 30,0 1014,5 70 - 531.3
10:44 19,2 13,8 14,0 SSW 17,0 1014,5 72 - 386.8
10:49 19,2 13,8 14,0 SSW 19,0 1014,5 71 - 408
10:54 19,2 13,7 16,0 SSW 24,0 1014,5 71 - 454.5
10:59 19,3 13,6 15,0 SSW 22,0 1014,4 70 - 454.5
11:04 19,1 13,7 15,0 SW 24,0 1014,4 71 - 419.1
11:09 19,1 14,0 13,0 SSW 20,0 1014,4 73 - 585.8
11:14 19,6 14,6 12,0 SW 19,0 1014,4 74 - 585.8
11:19 19,6 14,1 11,0 SSW 17,0 1014,4 72 - 344.4
11:24 19,2 14,1 16,0 SSW 22,0 1014,4 72 - 445.4
11:29 19,1 13,8 16,0 SW 22,0 1014,3 72 - 429.3
11:34 19,1 14,1 13,0 SW 24,0 1014,3 73 - 386.8
11:39 19,0 13,8 13,0 SW 19,0 1014,4 72 - 353.5
11:44 18,8 14,1 13,0 SW 19,0 1014,4 74 - 325.2
11:49 18,7 13,8 12,0 SW 15,0 1014,5 73 - 271.7
11:54 18,7 13,7 13,0 SW 15,0 1014,5 73 - 238.4
11:59 18,6 13,9 11,0 SSW 15,0 1014,4 74 - 253.5
12:04 18,9 14,2 7,0 SSW 12,0 1014,4 75 - 304
12:09 19,2 14,6 11,0 SSW 15,0 1014,4 75 - 408
12:14 19,1 14,2 14,0 SSW 19,0 1014,4 73 - 260.6
12:19 18,8 13,9 13,0 SSW 17,0 1014,4 74 - 135.3
12:24 18,4 13,7 11,0 SSW 14,0 1014,4 76 - 62.6
12:29 17,8 13,7 11,0 SSW 17,0 1014,4 78 - 115.1
12:34 17,6 13,9 10,0 SSW 14,0 1014,4 79 - 154.5
12:39 17,7 14,1 9,0 SSW 13,0 1014,3 79 - 234.3
12:44 18,2 14,4 6,0 SSW 7,0 1014,3 79 - 326.2
12:49 18,5 14,6 12,0 SSW 19,0 1014,2 79 - 454.5
12:54 18,9 14,9 10,0 SW 15,0 1014,2 78 - 400
12:59 19,0 14,6 9,0 SSW 14,0 1014,2 76 - 410.1
13:04 19,2 14,8 16,0 South 19,0 1014,2 76 - 410.1
13:09 19,2 14,6 15,0 SSW 20,0 1014,3 76 - 456.5
13:14 19,1 14,9 16,0 SW 25,0 1014,3 77 - 431.3
13:19 19,1 14,8 16,0 SSW 29,0 1014,2 76 - 348.4
13:24 18,9 14,3 17,0 SSW 30,0 1014,2 75 - 287.9
13:29 18,8 14,3 19,0 SW 26,0 1014,1 76 - 289.9
13:34 18,8 14,4 11,0 SSW 15,0 1014,1 76 - 314.1
13:39 18,9 14,3 15,0 SSW 19,0 1014,1 75 - 280.8
13:44 18,9 14,6 14,0 SSW 15,0 1014,1 76 - 433.3
13:49 19,3 15,2 9,0 SSW 12,0 1014,1 77 - 433.3
13:54 19,3 15,0 11,0 SSW 12,0 1014,2 76 - 360.6
13:59 19,1 14,6 12,0 SSW 15,0 1014,2 75 - 296.9
14:04 19,1 14,9 9,0 SSW 11,0 1014,2 77 - 296.9
14:09 19,2 14,6 15,0 SSW 20,0 1014,1 75 - 367.6
14:14 19,1 14,6 14,0 South 19,0 1014,1 75 - 367.6
14:19 19,2 15,1 11,0 SSW 15,0 1014,1 77 - 332.3
14:24 19,3 15,2 17,0 SSW 20,0 1014,1 77 - 326.2
14:29 19,2 14,8 8,0 SSW 14,0 1014,2 76 - 300
14:34 19,3 14,9 9,0 SW 14,0 1014,2 76 - 311.1
14:39 19,3 14,9 11,0 SW 17,0 1014,2 76 - 326.2
14:44 19,2 14,9 12,0 SW 19,0 1014,2 76 - 332.3
14:49 19,2 14,8 11,0 SW 15,0 1014,2 76 - 502
14:54 19,4 14,9 8,0 SW 13,0 1014,3 76 - 502
14:59 19,4 14,7 16,0 SSW 24,0 1014,2 75 - 349.5

Download your copy of this data-set  from WeatherUnderground

Our weather-data as stored at Weather Underground. Original script b Jim McMurry. Rewritten for template use Leuven-Template